Time;durP1;ratioP1;P1;durP2;ratioP2;P2;SDS_P1;SDS_P2;PMS_P1;PMS_P2;Temp;Humidity;BMP_temperature;BMP_pressure;BME280_temperature;BME280_humidity;BME280_pressure;Samples;Min_cycle;Max_cycle;Signal;HPM_P1;HPM_P2
2021/05/21 00:01:09;;;;;;;;;;;20.90;45.20;;;;;;461150;258;1196;-45
2021/05/21 00:03:11;;;;;;;;;;;20.90;45.00;;;;;;461520;258;1049;-45
2021/05/21 00:05:12;;;;;;;;;;;20.90;44.90;;;;;;461458;258;1243;-45
2021/05/21 00:07:13;;;;;;;;;;;21.00;44.80;;;;;;461524;258;1320;-44
2021/05/21 00:09:15;;;;;;;;;;;21.00;44.70;;;;;;461122;258;1056;-45
2021/05/21 00:11:16;;;;;;;;;;;21.10;44.70;;;;;;461044;258;2211;-45
2021/05/21 00:13:18;;;;;;;;;;;21.10;44.60;;;;;;461122;258;1249;-45
2021/05/21 00:15:19;;;;;;;;;;;21.10;44.50;;;;;;461351;258;1164;-45
2021/05/21 00:17:20;;;;;;;;;;;21.20;44.50;;;;;;461380;258;1408;-44
2021/05/21 00:19:21;;;;;;;;;;;21.20;44.30;;;;;;461251;258;1198;-45
2021/05/21 00:21:23;;;;;;;;;;;21.20;44.30;;;;;;461132;258;1231;-45
2021/05/21 00:23:24;;;;;;;;;;;21.30;44.30;;;;;;461340;258;1118;-45
2021/05/21 00:25:25;;;;;;;;;;;21.30;44.20;;;;;;461393;258;1139;-45
2021/05/21 00:27:27;;;;;;;;;;;21.30;44.10;;;;;;461098;258;1448;-44
2021/05/21 00:29:28;;;;;;;;;;;21.40;44.10;;;;;;461508;258;1117;-45
2021/05/21 00:31:29;;;;;;;;;;;21.40;44.00;;;;;;461139;258;2224;-44
2021/05/21 00:33:31;;;;;;;;;;;21.40;44.00;;;;;;461144;258;1209;-44
2021/05/21 00:35:32;;;;;;;;;;;21.50;44.00;;;;;;461105;258;1106;-45
2021/05/21 00:37:33;;;;;;;;;;;21.50;43.80;;;;;;461428;258;1215;-44
2021/05/21 00:39:34;;;;;;;;;;;21.50;43.80;;;;;;461127;258;1047;-45
2021/05/21 00:41:36;;;;;;;;;;;21.50;43.80;;;;;;461105;258;1479;-45
2021/05/21 00:43:37;;;;;;;;;;;21.50;43.70;;;;;;461051;258;1061;-45
2021/05/21 00:45:38;;;;;;;;;;;21.60;43.70;;;;;;461150;258;1285;-45
2021/05/21 00:47:41;;;;;;;;;;;21.60;43.70;;;;;;461113;258;1266;-45
2021/05/21 00:49:41;;;;;;;;;;;21.60;43.70;;;;;;461031;258;2570;-45
2021/05/21 00:51:42;;;;;;;;;;;21.60;43.60;;;;;;461118;258;2199;-44
2021/05/21 00:53:43;;;;;;;;;;;21.70;43.60;;;;;;461101;258;1103;-45
2021/05/21 00:55:45;;;;;;;;;;;21.70;43.60;;;;;;461006;258;1197;-45
2021/05/21 00:57:46;;;;;;;;;;;21.70;43.50;;;;;;461469;258;1166;-45
2021/05/21 00:59:47;;;;;;;;;;;21.70;43.40;;;;;;461317;258;1225;-45
2021/05/21 01:01:48;;;;;;;;;;;21.70;43.40;;;;;;461027;258;1202;-45
2021/05/21 01:03:50;;;;;;;;;;;21.80;43.40;;;;;;461443;258;1066;-45
2021/05/21 01:05:51;;;;;;;;;;;21.80;43.30;;;;;;461453;258;1490;-45
2021/05/21 01:07:52;;;;;;;;;;;21.80;43.30;;;;;;461463;258;1157;-45
2021/05/21 01:09:54;;;;;;;;;;;21.70;43.50;;;;;;461173;258;1072;-45
2021/05/21 01:11:55;;;;;;;;;;;21.80;43.30;;;;;;460983;258;2204;-45
2021/05/21 01:13:56;;;;;;;;;;;21.50;44.00;;;;;;461139;258;1070;-44
2021/05/21 01:15:57;;;;;;;;;;;21.00;45.10;;;;;;461384;258;1598;-45
2021/05/21 01:17:59;;;;;;;;;;;20.50;46.10;;;;;;461291;258;1195;-45
2021/05/21 01:20:00;;;;;;;;;;;20.20;46.90;;;;;;461145;258;1060;-44
2021/05/21 01:22:01;;;;;;;;;;;20.00;47.50;;;;;;461026;258;1208;-44
2021/05/21 01:24:03;;;;;;;;;;;19.90;47.80;;;;;;461580;258;1058;-45
2021/05/21 01:26:04;;;;;;;;;;;19.70;48.20;;;;;;461432;258;1105;-44
2021/05/21 01:28:05;;;;;;;;;;;19.60;48.40;;;;;;461542;258;1115;-45
2021/05/21 01:30:06;;;;;;;;;;;19.50;48.70;;;;;;461314;258;1284;-44
2021/05/21 01:32:08;;;;;;;;;;;19.50;48.80;;;;;;461048;258;2172;-44
2021/05/21 01:34:09;;;;;;;;;;;19.50;48.90;;;;;;461510;258;1164;-45
2021/05/21 01:36:10;;;;;;;;;;;19.40;49.00;;;;;;461292;258;1117;-44
2021/05/21 01:38:13;;;;;;;;;;;19.40;49.10;;;;;;461183;258;1045;-44
2021/05/21 01:40:14;;;;;;;;;;;19.40;49.20;;;;;;461115;258;1155;-45
2021/05/21 01:42:15;;;;;;;;;;;19.30;49.30;;;;;;461440;258;1383;-45
2021/05/21 01:44:16;;;;;;;;;;;19.30;49.40;;;;;;461500;258;1257;-45
2021/05/21 01:46:17;;;;;;;;;;;19.20;49.50;;;;;;461172;258;1300;-44
2021/05/21 01:48:19;;;;;;;;;;;19.20;49.50;;;;;;461475;258;1134;-44
2021/05/21 01:50:20;;;;;;;;;;;19.20;49.50;;;;;;461597;258;1629;-44
2021/05/21 01:52:21;;;;;;;;;;;19.20;49.50;;;;;;461121;258;2141;-44
2021/05/21 01:54:23;;;;;;;;;;;19.20;49.60;;;;;;461468;258;1354;-44
2021/05/21 01:56:24;;;;;;;;;;;19.10;49.70;;;;;;461266;258;1364;-44
2021/05/21 01:58:25;;;;;;;;;;;19.10;49.80;;;;;;461562;258;1148;-44
2021/05/21 02:00:27;;;;;;;;;;;19.10;49.80;;;;;;461286;258;1180;-45
2021/05/21 02:02:28;;;;;;;;;;;19.10;49.80;;;;;;461222;258;1356;-44
2021/05/21 02:04:29;;;;;;;;;;;19.10;49.80;;;;;;461073;258;1079;-44
2021/05/21 02:06:31;;;;;;;;;;;19.00;50.00;;;;;;461307;258;1155;-44
2021/05/21 02:08:32;;;;;;;;;;;19.00;50.10;;;;;;461400;258;1102;-44
2021/05/21 02:10:33;;;;;;;;;;;19.00;50.10;;;;;;461399;258;1103;-44
2021/05/21 02:12:34;;;;;;;;;;;19.00;50.00;;;;;;461189;258;2212;-44
2021/05/21 02:14:36;;;;;;;;;;;18.90;50.10;;;;;;461162;258;1058;-45
2021/05/21 02:16:37;;;;;;;;;;;18.90;50.10;;;;;;461516;258;1242;-44
2021/05/21 02:18:38;;;;;;;;;;;18.90;50.10;;;;;;461289;258;1100;-44
2021/05/21 02:20:40;;;;;;;;;;;18.90;50.10;;;;;;461348;258;1111;-44
2021/05/21 02:22:41;;;;;;;;;;;18.90;50.10;;;;;;461529;258;1098;-44
2021/05/21 02:24:42;;;;;;;;;;;18.80;50.20;;;;;;461536;258;1118;-45
2021/05/21 02:26:43;;;;;;;;;;;18.80;50.20;;;;;;461016;258;1103;-44
2021/05/21 02:28:45;;;;;;;;;;;18.90;50.30;;;;;;461236;258;1060;-44
2021/05/21 02:30:46;;;;;;;;;;;18.90;50.30;;;;;;461204;258;1074;-44
2021/05/21 02:32:47;;;;;;;;;;;18.80;50.40;;;;;;461004;258;2204;-44
2021/05/21 02:34:48;;;;;;;;;;;18.80;50.40;;;;;;461274;258;1082;-44
2021/05/21 02:36:50;;;;;;;;;;;18.70;50.40;;;;;;461157;258;1362;-44
2021/05/21 02:38:51;;;;;;;;;;;18.70;50.50;;;;;;461320;258;1102;-44
2021/05/21 02:40:52;;;;;;;;;;;18.70;50.50;;;;;;461130;258;1098;-44
2021/05/21 02:42:55;;;;;;;;;;;18.70;50.40;;;;;;461118;258;1325;-44
2021/05/21 02:44:55;;;;;;;;;;;18.70;50.50;;;;;;461125;258;2255;-44
2021/05/21 02:46:56;;;;;;;;;;;18.70;50.50;;;;;;461359;258;1216;-45
2021/05/21 02:48:57;;;;;;;;;;;18.70;50.60;;;;;;461495;258;1185;-45
2021/05/21 02:50:59;;;;;;;;;;;18.70;50.50;;;;;;461485;258;1171;-44
2021/05/21 02:53:00;;;;;;;;;;;18.70;50.50;;;;;;461126;258;2208;-44
2021/05/21 02:55:01;;;;;;;;;;;18.70;50.40;;;;;;461455;258;1084;-44
2021/05/21 02:57:03;;;;;;;;;;;18.70;50.50;;;;;;461119;258;1136;-44
2021/05/21 02:59:04;;;;;;;;;;;18.70;50.50;;;;;;461281;258;1078;-44
2021/05/21 03:01:05;;;;;;;;;;;18.70;50.40;;;;;;461302;258;1111;-44
2021/05/21 03:03:06;;;;;;;;;;;18.70;50.50;;;;;;461051;258;1372;-45
2021/05/21 03:05:08;;;;;;;;;;;18.70;50.60;;;;;;461138;258;1081;-44
2021/05/21 03:07:09;;;;;;;;;;;18.70;50.50;;;;;;461042;258;1170;-44
2021/05/21 03:09:10;;;;;;;;;;;18.60;50.60;;;;;;461203;258;1122;-44
2021/05/21 03:11:12;;;;;;;;;;;18.60;50.60;;;;;;461088;258;1238;-44
2021/05/21 03:13:13;;;;;;;;;;;18.60;50.50;;;;;;461163;258;2158;-45
2021/05/21 03:15:14;;;;;;;;;;;18.60;50.50;;;;;;461129;258;1204;-44
2021/05/21 03:17:15;;;;;;;;;;;18.70;50.50;;;;;;461091;258;1089;-45
2021/05/21 03:19:17;;;;;;;;;;;18.70;50.40;;;;;;461160;258;1206;-45
2021/05/21 03:21:18;;;;;;;;;;;18.70;50.40;;;;;;461041;258;1178;-45
2021/05/21 03:23:19;;;;;;;;;;;18.70;50.40;;;;;;461469;258;1221;-44
2021/05/21 03:25:21;;;;;;;;;;;18.60;50.50;;;;;;461478;258;1187;-44
2021/05/21 03:27:22;;;;;;;;;;;18.50;50.60;;;;;;461211;258;1277;-44
2021/05/21 03:29:23;;;;;;;;;;;18.60;50.60;;;;;;461532;258;1213;-44
2021/05/21 03:31:25;;;;;;;;;;;18.60;50.70;;;;;;461274;258;1337;-45
2021/05/21 03:33:26;;;;;;;;;;;18.50;50.70;;;;;;461411;258;2164;-44
2021/05/21 03:35:27;;;;;;;;;;;18.70;50.40;;;;;;461478;258;1062;-44
2021/05/21 03:37:28;;;;;;;;;;;19.20;49.20;;;;;;461478;258;1249;-44
2021/05/21 03:39:30;;;;;;;;;;;19.60;48.00;;;;;;461570;258;1069;-44
2021/05/21 03:41:31;;;;;;;;;;;19.90;47.30;;;;;;461094;258;1184;-45
2021/05/21 03:43:32;;;;;;;;;;;20.10;46.80;;;;;;461179;258;1094;-44
2021/05/21 03:45:34;;;;;;;;;;;20.20;46.30;;;;;;461540;258;1032;-45
2021/05/21 03:47:35;;;;;;;;;;;20.40;46.00;;;;;;461444;258;1075;-45
2021/05/21 03:49:37;;;;;;;;;;;20.50;45.80;;;;;;461197;258;1197;-45
2021/05/21 03:51:37;;;;;;;;;;;20.60;45.60;;;;;;461269;258;2018;-45
2021/05/21 03:53:39;;;;;;;;;;;20.60;45.30;;;;;;461051;258;2263;-45
2021/05/21 03:55:40;;;;;;;;;;;20.70;45.20;;;;;;461420;258;1291;-45
2021/05/21 03:57:42;;;;;;;;;;;20.80;45.10;;;;;;461182;258;1202;-45
2021/05/21 03:59:43;;;;;;;;;;;20.80;44.90;;;;;;461570;258;1070;-45
2021/05/21 04:01:44;;;;;;;;;;;20.90;44.80;;;;;;461367;258;1346;-44
2021/05/21 04:03:45;;;;;;;;;;;20.90;44.70;;;;;;461375;258;1277;-45
2021/05/21 04:05:47;;;;;;;;;;;21.00;44.70;;;;;;461104;258;1348;-45
2021/05/21 04:07:48;;;;;;;;;;;21.00;44.60;;;;;;461538;258;1311;-45
2021/05/21 04:09:49;;;;;;;;;;;21.10;44.60;;;;;;461341;258;1054;-45
2021/05/21 04:11:51;;;;;;;;;;;21.10;44.40;;;;;;461397;258;1300;-45
2021/05/21 04:13:52;;;;;;;;;;;21.10;44.40;;;;;;461237;258;2208;-45
2021/05/21 04:15:53;;;;;;;;;;;21.20;44.30;;;;;;461309;258;1099;-44
2021/05/21 04:17:54;;;;;;;;;;;21.20;44.30;;;;;;461157;258;1215;-45
2021/05/21 04:19:56;;;;;;;;;;;21.20;44.20;;;;;;460976;258;1226;-45
2021/05/21 04:21:57;;;;;;;;;;;21.20;44.10;;;;;;460854;258;1121;-45
2021/05/21 04:23:59;;;;;;;;;;;21.30;44.10;;;;;;461218;258;1057;-45
2021/05/21 04:26:00;;;;;;;;;;;21.30;44.00;;;;;;461055;258;2370;-45
2021/05/21 04:28:01;;;;;;;;;;;21.30;43.90;;;;;;461221;258;1072;-45
2021/05/21 04:30:02;;;;;;;;;;;21.40;43.90;;;;;;461572;258;1042;-45
2021/05/21 04:32:05;;;;;;;;;;;21.40;43.90;;;;;;460965;258;1267;-45
2021/05/21 04:34:05;;;;;;;;;;;21.40;43.80;;;;;;461301;258;2541;-45
2021/05/21 04:36:06;;;;;;;;;;;21.40;43.80;;;;;;460993;258;1129;-45
2021/05/21 04:38:07;;;;;;;;;;;21.50;43.80;;;;;;461108;258;1064;-45
2021/05/21 04:40:09;;;;;;;;;;;21.50;43.70;;;;;;460926;258;1100;-45
2021/05/21 04:42:10;;;;;;;;;;;21.50;43.70;;;;;;460911;258;1169;-45
2021/05/21 04:44:12;;;;;;;;;;;21.50;43.70;;;;;;461283;258;1101;-45
2021/05/21 04:46:13;;;;;;;;;;;21.50;43.60;;;;;;460931;258;1336;-45
2021/05/21 04:48:14;;;;;;;;;;;21.60;43.60;;;;;;461017;258;1075;-45
2021/05/21 04:50:15;;;;;;;;;;;21.60;43.60;;;;;;461040;258;1205;-45
2021/05/21 04:52:17;;;;;;;;;;;21.60;43.50;;;;;;460943;258;2176;-45
2021/05/21 04:54:19;;;;;;;;;;;21.60;43.40;;;;;;461445;258;1092;-45
2021/05/21 04:56:19;;;;;;;;;;;21.60;43.40;;;;;;461219;258;2177;-45
2021/05/21 04:58:20;;;;;;;;;;;21.70;43.40;;;;;;461068;258;1044;-45
2021/05/21 05:00:22;;;;;;;;;;;21.70;43.40;;;;;;460966;258;1264;-45
2021/05/21 05:02:23;;;;;;;;;;;21.70;43.30;;;;;;461063;258;1312;-44
2021/05/21 05:04:24;;;;;;;;;;;21.80;43.40;;;;;;461073;258;1192;-45
2021/05/21 05:06:26;;;;;;;;;;;21.80;43.40;;;;;;460985;258;1914;-45
2021/05/21 05:08:28;;;;;;;;;;;21.80;43.30;;;;;;460877;258;1126;-45
2021/05/21 05:10:28;;;;;;;;;;;21.80;43.20;;;;;;460989;258;2093;-45
2021/05/21 05:12:29;;;;;;;;;;;21.80;43.20;;;;;;460912;258;2149;-45
2021/05/21 05:14:31;;;;;;;;;;;21.80;43.20;;;;;;460933;258;1130;-44
2021/05/21 05:16:32;;;;;;;;;;;21.90;43.20;;;;;;460893;258;1099;-44
2021/05/21 05:18:33;;;;;;;;;;;21.90;43.10;;;;;;461126;258;1128;-45
2021/05/21 05:20:35;;;;;;;;;;;21.90;43.20;;;;;;460965;258;1203;-45
2021/05/21 05:22:36;;;;;;;;;;;21.90;43.10;;;;;;461052;258;1114;-45
2021/05/21 05:24:37;;;;;;;;;;;21.80;43.20;;;;;;461212;258;1166;-45
2021/05/21 05:26:39;;;;;;;;;;;21.20;44.30;;;;;;460863;258;1135;-45
2021/05/21 05:28:40;;;;;;;;;;;20.70;45.60;;;;;;461050;258;1138;-45
2021/05/21 05:30:41;;;;;;;;;;;20.40;46.40;;;;;;460977;258;1113;-45
2021/05/21 05:32:42;;;;;;;;;;;20.20;46.80;;;;;;460684;258;2264;-44
2021/05/21 05:34:44;;;;;;;;;;;20.00;47.30;;;;;;460766;258;1880;-45
2021/05/21 05:36:45;;;;;;;;;;;19.80;47.70;;;;;;460925;258;1244;-44
2021/05/21 05:38:46;;;;;;;;;;;19.70;48.10;;;;;;461235;258;1109;-44
2021/05/21 05:40:48;;;;;;;;;;;19.60;48.30;;;;;;460787;258;1370;-44
2021/05/21 05:42:49;;;;;;;;;;;19.50;48.50;;;;;;460911;258;1184;-45
2021/05/21 05:44:50;;;;;;;;;;;19.50;48.70;;;;;;460751;258;1142;-44
2021/05/21 05:46:52;;;;;;;;;;;19.40;48.80;;;;;;460782;258;1459;-45
2021/05/21 05:48:53;;;;;;;;;;;19.40;49.00;;;;;;460925;258;1108;-44
2021/05/21 05:50:54;;;;;;;;;;;19.30;49.10;;;;;;460789;258;1318;-45
2021/05/21 05:52:56;;;;;;;;;;;19.30;49.20;;;;;;460922;258;2212;-44
2021/05/21 05:54:57;;;;;;;;;;;19.30;49.30;;;;;;460880;258;1215;-44
2021/05/21 05:56:58;;;;;;;;;;;19.20;49.30;;;;;;460913;258;1356;-45
2021/05/21 05:58:59;;;;;;;;;;;19.20;49.40;;;;;;460946;258;1093;-44
2021/05/21 06:01:01;;;;;;;;;;;19.20;49.50;;;;;;460891;258;1396;-45
2021/05/21 06:03:02;;;;;;;;;;;19.10;49.60;;;;;;460823;258;1116;-45
2021/05/21 06:05:03;;;;;;;;;;;19.10;49.60;;;;;;460594;258;1193;-44
2021/05/21 06:07:05;;;;;;;;;;;19.10;49.80;;;;;;460420;258;1512;-44
2021/05/21 06:09:08;;;;;;;;;;;19.00;49.90;;;;;;460734;258;1099;-44
2021/05/21 06:11:07;;;;;;;;;;;19.00;49.80;;;;;;460388;258;1427;-45
2021/05/21 06:13:09;;;;;;;;;;;19.00;49.80;;;;;;460839;258;2161;-44
2021/05/21 06:15:10;;;;;;;;;;;19.00;49.90;;;;;;460835;258;1134;-44
2021/05/21 06:17:11;;;;;;;;;;;19.00;50.00;;;;;;460449;258;1262;-45
2021/05/21 06:19:13;;;;;;;;;;;19.00;50.00;;;;;;460791;258;1338;-44
2021/05/21 06:21:14;;;;;;;;;;;19.00;50.00;;;;;;460657;258;1265;-44
2021/05/21 06:23:15;;;;;;;;;;;18.90;50.10;;;;;;460785;258;1261;-44
2021/05/21 06:25:18;;;;;;;;;;;18.90;50.10;;;;;;460975;258;1183;-45
2021/05/21 06:27:23;;;;;;;;;;;18.90;50.10;;;;;;460883;253;2154;-44
2021/05/21 06:29:21;;;;;;;;;;;18.80;50.10;;;;;;460496;258;2271;-44
2021/05/21 06:31:22;;;;;;;;;;;18.90;50.10;;;;;;460584;258;1300;-44
2021/05/21 06:33:23;;;;;;;;;;;18.80;50.10;;;;;;460525;256;2208;-44
2021/05/21 06:35:26;;;;;;;;;;;18.90;50.20;;;;;;460472;258;1195;-44
2021/05/21 06:37:28;;;;;;;;;;;18.80;50.20;;;;;;460488;258;2161;-45
2021/05/21 06:39:28;;;;;;;;;;;18.80;50.30;;;;;;460569;258;1503;-44
2021/05/21 06:41:29;;;;;;;;;;;18.80;50.30;;;;;;460613;258;1293;-44
2021/05/21 06:43:31;;;;;;;;;;;18.80;50.20;;;;;;460646;258;1152;-44
2021/05/21 06:45:32;;;;;;;;;;;18.80;50.20;;;;;;460610;258;1422;-44
2021/05/21 06:47:34;;;;;;;;;;;18.80;50.30;;;;;;460562;258;1527;-44
2021/05/21 06:49:38;;;;;;;;;;;18.80;50.20;;;;;;460740;258;1155;-45
2021/05/21 06:51:36;;;;;;;;;;;18.80;50.20;;;;;;460273;258;1668;-44
2021/05/21 06:53:37;;;;;;;;;;;18.80;50.30;;;;;;460446;258;2196;-44
2021/05/21 06:55:39;;;;;;;;;;;18.70;50.40;;;;;;460425;258;1297;-44
2021/05/21 06:57:40;;;;;;;;;;;18.70;50.30;;;;;;460395;258;1116;-44
2021/05/21 06:59:41;;;;;;;;;;;18.70;50.40;;;;;;460653;258;1173;-44
2021/05/21 07:01:43;;;;;;;;;;;18.70;50.40;;;;;;460445;258;1293;-44
2021/05/21 07:03:44;;;;;;;;;;;18.70;50.50;;;;;;460603;258;1250;-44
2021/05/21 07:05:45;;;;;;;;;;;18.60;50.50;;;;;;460576;258;1201;-44
2021/05/21 07:07:46;;;;;;;;;;;18.60;50.60;;;;;;460531;258;1190;-44
2021/05/21 07:09:48;;;;;;;;;;;18.70;50.50;;;;;;460630;258;1268;-45
2021/05/21 07:11:49;;;;;;;;;;;18.60;50.50;;;;;;460699;258;1256;-44
2021/05/21 07:13:50;;;;;;;;;;;18.60;50.50;;;;;;460911;258;2161;-44
2021/05/21 07:15:52;;;;;;;;;;;18.60;50.40;;;;;;461040;258;1339;-44
2021/05/21 07:17:53;;;;;;;;;;;18.60;50.40;;;;;;460447;258;1250;-44
2021/05/21 07:19:55;;;;;;;;;;;18.60;50.40;;;;;;460511;258;1170;-45
2021/05/21 07:21:56;;;;;;;;;;;18.60;50.50;;;;;;460428;258;1281;-44
2021/05/21 07:23:57;;;;;;;;;;;18.60;50.60;;;;;;460498;258;1317;-45
2021/05/21 07:25:58;;;;;;;;;;;18.60;50.70;;;;;;460393;258;1406;-44
2021/05/21 07:28:00;;;;;;;;;;;18.60;50.70;;;;;;461053;258;1090;-44
2021/05/21 07:30:01;;;;;;;;;;;18.50;50.70;;;;;;460463;258;1257;-44
2021/05/21 07:32:03;;;;;;;;;;;18.60;50.60;;;;;;461038;258;1252;-44
2021/05/21 07:34:04;;;;;;;;;;;18.70;50.30;;;;;;460605;258;2196;-45
2021/05/21 07:36:05;;;;;;;;;;;19.20;49.10;;;;;;460609;258;1987;-44
2021/05/21 07:38:06;;;;;;;;;;;19.60;47.90;;;;;;460645;258;1670;-45
2021/05/21 07:40:08;;;;;;;;;;;19.90;47.20;;;;;;460406;258;1269;-44
2021/05/21 07:42:09;;;;;;;;;;;20.10;46.60;;;;;;460498;258;1303;-45
2021/05/21 07:44:11;;;;;;;;;;;20.30;46.20;;;;;;460467;258;1122;-45
2021/05/21 07:46:12;;;;;;;;;;;20.40;45.90;;;;;;460660;253;2268;-44
2021/05/21 07:48:13;;;;;;;;;;;20.50;45.70;;;;;;461047;258;1000;-45
2021/05/21 07:50:14;;;;;;;;;;;20.60;45.40;;;;;;461195;258;929;-44
2021/05/21 07:52:15;;;;;;;;;;;20.70;45.20;;;;;;460807;258;1238;-45
2021/05/21 07:54:17;;;;;;;;;;;20.70;45.10;;;;;;460595;258;2208;-45
2021/05/21 07:56:18;;;;;;;;;;;20.80;45.00;;;;;;460615;258;1183;-45
2021/05/21 07:58:19;;;;;;;;;;;20.90;44.90;;;;;;460913;253;1118;-45
2021/05/21 08:00:20;;;;;;;;;;;20.90;44.80;;;;;;460284;258;1196;-44
2021/05/21 08:02:22;;;;;;;;;;;20.90;44.60;;;;;;460196;258;1558;-44
2021/05/21 08:04:23;;;;;;;;;;;21.00;44.60;;;;;;460390;258;1094;-45
2021/05/21 08:06:24;;;;;;;;;;;21.00;44.50;;;;;;460225;258;1321;-45
2021/05/21 08:08:26;;;;;;;;;;;21.10;44.50;;;;;;459830;258;1212;-44
2021/05/21 08:10:27;;;;;;;;;;;21.10;44.40;;;;;;460388;258;1226;-45
2021/05/21 08:12:28;;;;;;;;;;;21.20;44.30;;;;;;460559;258;1181;-45
2021/05/21 08:14:30;;;;;;;;;;;21.20;44.20;;;;;;460603;258;2192;-44
2021/05/21 08:16:31;;;;;;;;;;;21.20;44.10;;;;;;460205;258;1445;-44
2021/05/21 08:18:32;;;;;;;;;;;21.20;44.10;;;;;;460493;258;1254;-45
2021/05/21 08:20:34;;;;;;;;;;;21.30;44.10;;;;;;460544;258;1340;-44
2021/05/21 08:22:35;;;;;;;;;;;21.30;44.00;;;;;;460479;258;1270;-45
2021/05/21 08:24:36;;;;;;;;;;;21.30;43.90;;;;;;460399;258;1100;-45
2021/05/21 08:26:37;;;;;;;;;;;21.30;43.90;;;;;;459748;258;1221;-45
2021/05/21 08:28:39;;;;;;;;;;;21.40;43.90;;;;;;460586;258;1294;-45
2021/05/21 08:30:40;;;;;;;;;;;21.40;43.80;;;;;;460535;258;1437;-45
2021/05/21 08:32:41;;;;;;;;;;;21.40;43.70;;;;;;460674;258;1277;-45
2021/05/21 08:34:43;;;;;;;;;;;21.40;43.70;;;;;;460588;258;2153;-44
2021/05/21 08:36:44;;;;;;;;;;;21.50;43.70;;;;;;460594;258;1279;-44
2021/05/21 08:38:45;;;;;;;;;;;21.50;43.60;;;;;;460531;258;1211;-45
2021/05/21 08:40:48;;;;;;;;;;;21.50;43.50;;;;;;460502;258;1150;-44
2021/05/21 08:42:48;;;;;;;;;;;21.60;43.50;;;;;;460461;258;1795;-44
2021/05/21 08:44:50;;;;;;;;;;;21.60;43.50;;;;;;460502;258;1191;-45
2021/05/21 08:46:51;;;;;;;;;;;21.60;43.50;;;;;;460508;258;1296;-44
2021/05/21 08:48:52;;;;;;;;;;;21.60;43.40;;;;;;460633;258;1094;-45
2021/05/21 08:50:53;;;;;;;;;;;21.70;43.40;;;;;;460396;258;1361;-45
2021/05/21 08:52:54;;;;;;;;;;;21.70;43.40;;;;;;460632;258;1220;-45
2021/05/21 08:54:56;;;;;;;;;;;21.70;43.40;;;;;;460420;258;2176;-45
2021/05/21 08:57:00;;;;;;;;;;;21.70;43.30;;;;;;460420;258;1332;-45
2021/05/21 08:59:01;;;;;;;;;;;21.70;43.30;;;;;;460409;258;1122;-45
2021/05/21 09:01:02;;;;;;;;;;;21.80;43.20;;;;;;460367;258;1325;-45
2021/05/21 09:03:04;;;;;;;;;;;21.80;43.20;;;;;;460526;258;1106;-45
2021/05/21 09:05:05;;;;;;;;;;;21.80;43.10;;;;;;460307;258;1165;-44
2021/05/21 09:07:06;;;;;;;;;;;21.80;43.10;;;;;;460492;258;1379;-44
2021/05/21 09:09:11;;;;;;;;;;;21.80;43.10;;;;;;460634;258;1129;-44
2021/05/21 09:11:09;;;;;;;;;;;21.90;43.10;;;;;;460210;258;1990;-45
2021/05/21 09:13:10;;;;;;;;;;;21.90;43.00;;;;;;460477;258;1199;-44
2021/05/21 09:15:12;;;;;;;;;;;21.90;43.00;;;;;;460393;258;2220;-45
2021/05/21 09:17:13;;;;;;;;;;;21.90;43.00;;;;;;460332;258;2346;-45
2021/05/21 09:19:15;;;;;;;;;;;21.90;43.00;;;;;;460522;258;1117;-45
2021/05/21 09:21:17;;;;;;;;;;;21.90;43.00;;;;;;460487;258;1214;-45
2021/05/21 09:23:17;;;;;;;;;;;21.90;43.10;;;;;;460442;258;1967;-45
2021/05/21 09:25:18;;;;;;;;;;;21.90;43.00;;;;;;460324;258;1158;-45
2021/05/21 09:27:19;;;;;;;;;;;21.50;43.90;;;;;;460582;258;1255;-44
2021/05/21 09:29:21;;;;;;;;;;;20.90;45.10;;;;;;460479;258;1103;-45
2021/05/21 09:31:23;;;;;;;;;;;20.60;45.90;;;;;;460456;258;1199;-44
2021/05/21 09:33:23;;;;;;;;;;;20.30;46.60;;;;;;460456;258;2335;-44
2021/05/21 09:35:25;;;;;;;;;;;20.20;47.10;;;;;;460102;258;2180;-44
2021/05/21 09:37:26;;;;;;;;;;;20.00;47.50;;;;;;460025;258;1235;-45
2021/05/21 09:39:27;;;;;;;;;;;19.90;47.80;;;;;;460543;258;1307;-45
2021/05/21 09:41:28;;;;;;;;;;;19.80;47.90;;;;;;460372;258;1269;-44
2021/05/21 09:43:30;;;;;;;;;;;19.70;48.10;;;;;;460663;258;1091;-44
2021/05/21 09:45:32;;;;;;;;;;;19.60;48.40;;;;;;460570;259;1098;-44
2021/05/21 09:47:32;;;;;;;;;;;19.50;48.60;;;;;;460584;258;1066;-44
2021/05/21 09:49:34;;;;;;;;;;;19.40;48.80;;;;;;460495;258;1185;-44
2021/05/21 09:51:35;;;;;;;;;;;19.40;49.00;;;;;;460361;258;1141;-44
2021/05/21 09:53:37;;;;;;;;;;;19.40;48.90;;;;;;460427;258;1240;-44
2021/05/21 09:55:37;;;;;;;;;;;19.30;49.00;;;;;;460592;258;2207;-44
2021/05/21 09:57:39;;;;;;;;;;;19.30;49.10;;;;;;460551;258;1101;-44
2021/05/21 09:59:40;;;;;;;;;;;19.30;49.10;;;;;;460435;258;2197;-44
2021/05/21 10:01:41;;;;;;;;;;;19.30;49.20;;;;;;460639;258;1268;-44
2021/05/21 10:03:43;;;;;;;;;;;19.20;49.30;;;;;;460501;258;1116;-44
2021/05/21 10:05:44;;;;;;;;;;;19.20;49.30;;;;;;459781;258;1147;-45
2021/05/21 10:07:47;;;;;;;;;;;19.10;49.50;;;;;;460502;258;1091;-44
2021/05/21 10:09:47;;;;;;;;;;;19.10;49.70;;;;;;460429;258;2182;-44
2021/05/21 10:11:48;;;;;;;;;;;19.10;49.60;;;;;;460409;258;1315;-45
2021/05/21 10:13:49;;;;;;;;;;;19.10;49.70;;;;;;460399;258;1138;-44
2021/05/21 10:15:51;;;;;;;;;;;19.00;49.80;;;;;;459777;258;2211;-44
2021/05/21 10:17:52;;;;;;;;;;;19.10;49.80;;;;;;460882;258;1094;-44
2021/05/21 10:19:54;;;;;;;;;;;19.00;49.80;;;;;;460373;258;1255;-45
2021/05/21 10:21:55;;;;;;;;;;;19.10;49.80;;;;;;461000;258;1123;-45
2021/05/21 10:23:56;;;;;;;;;;;19.00;49.80;;;;;;460930;258;1559;-44
2021/05/21 10:25:58;;;;;;;;;;;19.00;49.80;;;;;;460418;258;1151;-44
2021/05/21 10:27:59;;;;;;;;;;;19.00;49.80;;;;;;460483;258;1249;-45
2021/05/21 10:30:00;;;;;;;;;;;18.90;49.90;;;;;;460441;258;1179;-44
2021/05/21 10:32:02;;;;;;;;;;;19.00;49.90;;;;;;460250;258;1194;-45
2021/05/21 10:34:03;;;;;;;;;;;19.00;49.90;;;;;;460501;258;1501;-44
2021/05/21 10:36:04;;;;;;;;;;;18.90;50.00;;;;;;460410;258;2206;-44
2021/05/21 10:38:05;;;;;;;;;;;18.90;50.10;;;;;;460514;258;1126;-44
2021/05/21 10:40:07;;;;;;;;;;;18.90;50.00;;;;;;460590;258;1392;-44
2021/05/21 10:42:08;;;;;;;;;;;18.90;50.00;;;;;;460542;258;1210;-45
2021/05/21 10:44:09;;;;;;;;;;;18.80;50.10;;;;;;460614;258;1128;-44
2021/05/21 10:46:11;;;;;;;;;;;18.80;50.20;;;;;;460404;258;1277;-44
2021/05/21 10:48:12;;;;;;;;;;;18.80;50.20;;;;;;460457;258;1154;-44
2021/05/21 10:50:17;;;;;;;;;;;18.80;50.20;;;;;;460529;258;1088;-44
2021/05/21 10:52:17;;;;;;;;;;;18.80;50.20;;;;;;460321;258;2058;-44
2021/05/21 10:54:18;;;;;;;;;;;18.80;50.20;;;;;;460568;258;2216;-44
2021/05/21 10:56:19;;;;;;;;;;;18.70;50.20;;;;;;460487;258;1207;-45
2021/05/21 10:58:20;;;;;;;;;;;18.80;50.30;;;;;;460514;258;1273;-45
2021/05/21 11:00:22;;;;;;;;;;;18.70;50.20;;;;;;460347;258;1182;-45
2021/05/21 11:02:23;;;;;;;;;;;18.70;50.30;;;;;;460806;258;1140;-44
2021/05/21 11:04:24;;;;;;;;;;;18.70;50.40;;;;;;460513;258;1097;-45
2021/05/21 11:06:25;;;;;;;;;;;18.70;50.50;;;;;;460415;258;1231;-44
2021/05/21 11:08:28;;;;;;;;;;;18.70;50.50;;;;;;460498;258;1120;-44
2021/05/21 11:10:29;;;;;;;;;;;18.70;50.40;;;;;;460578;258;1225;-44
2021/05/21 11:12:30;;;;;;;;;;;18.70;50.40;;;;;;460472;258;1357;-44
2021/05/21 11:14:32;;;;;;;;;;;18.70;50.40;;;;;;460523;258;2204;-45
2021/05/21 11:16:33;;;;;;;;;;;18.70;50.50;;;;;;460976;258;1118;-44
2021/05/21 11:18:35;;;;;;;;;;;18.70;50.40;;;;;;460500;258;1104;-44
2021/05/21 11:20:36;;;;;;;;;;;18.70;50.30;;;;;;460469;258;1414;-44
2021/05/21 11:22:37;;;;;;;;;;;18.60;50.50;;;;;;460442;258;1180;-44
2021/05/21 11:24:39;;;;;;;;;;;18.60;50.60;;;;;;460405;258;1190;-44
2021/05/21 11:26:41;;;;;;;;;;;18.60;50.60;;;;;;460362;258;1265;-44
2021/05/21 11:28:42;;;;;;;;;;;18.60;50.60;;;;;;460463;258;1104;-44
2021/05/21 11:30:44;;;;;;;;;;;18.60;50.60;;;;;;460302;258;1287;-44
2021/05/21 11:32:45;;;;;;;;;;;18.60;50.60;;;;;;460828;258;1134;-44
2021/05/21 11:34:46;;;;;;;;;;;18.60;50.70;;;;;;460443;258;2228;-44
2021/05/21 11:36:47;;;;;;;;;;;18.50;50.60;;;;;;460148;258;1312;-44
2021/05/21 11:38:49;;;;;;;;;;;18.60;50.60;;;;;;460957;258;772;-44
2021/05/21 11:40:50;;;;;;;;;;;18.50;50.60;;;;;;460491;258;1749;-44
2021/05/21 11:42:51;;;;;;;;;;;18.50;50.60;;;;;;460337;258;1278;-44
2021/05/21 11:44:53;;;;;;;;;;;18.50;50.60;;;;;;460477;258;1143;-45
2021/05/21 11:46:55;;;;;;;;;;;18.50;50.60;;;;;;460549;258;1301;-45
2021/05/21 11:48:56;;;;;;;;;;;18.70;50.20;;;;;;460477;258;1137;-44
2021/05/21 11:50:57;;;;;;;;;;;19.20;48.90;;;;;;460406;258;1606;-44
2021/05/21 11:52:58;;;;;;;;;;;19.60;47.80;;;;;;460903;258;1117;-44
2021/05/21 11:55:00;;;;;;;;;;;19.90;47.10;;;;;;460685;258;2213;-44
2021/05/21 11:57:01;;;;;;;;;;;20.10;46.60;;;;;;460478;258;1198;-44